Terminal Aerodrome Forecast
Issued by NWS

Home | Current Version | Previous Version | Text Only | Print | Product List | Glossary On
Versions: 1 2 3 4 5 6 7 8 9 10 11 12 13 14 15 16 17 18
000
FTUS44 KCRP 301500 AAB
TAFALI
TAF AMD
KALI 301543Z 3016/3112 10006KT P6SM SCT030 BKN060
     FM310200 13005KT P6SM SCT120
     FM310800 15006KT P6SM FEW020 SCT120=

USA.gov is the U.S. government's official web portal to all federal, state and local government web resources and services.